Erfurt, Germany

2:31 PM CET on November 28, 2014 (GMT +0100)
Erfurt | Change Station
CLOSE
Current Station
Airport
Location: Erfurt Bindersleben,
Elevation: 1060 ft
Nearby Weather Stations

Elev 1060 ft 50.98 °N, 10.96 °E | Updated 11 minutes ago

Mostly Cloudy
Mostly Cloudy
34 °F
Feels Like 25 °F
N
13
Wind Variable Wind from East

Today
High -- | Low -- °F
--% Chance of Precip.
Yesterday
High -- | Low -- °F
Precip. -- in
7:52 AM 4:15 PM
Waxing Crescent, 40% visible
Pressure 29.95 in
Visibility 6.2 miles
Clouds Mostly Cloudy 1000 ft
Windchill 25 °F
Dew Point 32 °F
Humidity 93%
Rainfall 0.00 in
Snow Depth Not available.
UV 0 out of 12
Pollen Not available.
Air Quality Not available.
Flu Activity Not available.
METAR EDDE 281320Z 08011KT 9999 BKN010 01/00 Q1014 TEMPO BKN009

More Conditions Fewer Conditions

Pressure 29.95 in
Visibility 6.2 miles
Clouds Mostly Cloudy 1000 ft
Windchill 25 °F
Dew Point 32 °F
Humidity 93%
Rainfall 0.00 in
Snow Depth Not available.
UV 0 out of 12
Pollen Not available.
Air Quality Not available.
Flu Activity Not available.
METAR EDDE 281320Z 08011KT 9999 BKN010 01/00 Q1014 TEMPO BKN009

More Conditions Fewer Conditions

10-Day Weather Forecast

Almanac

Astronomy

Nov. 28, 2014 Rise Set
Actual Time
Civil Twilight
Nautical Twilight
Astronomical Twilight
Moon
Length of Visible Light
Length of Day
Tomorrow will be .
, % of the Moon is Illuminated

Today's Extremes

Country Highs Country Lows

Community

WunderPhotos

Upload Photos

1,774,210 photos uploaded!

WunderBlogs® & News

Nearby

Air Quality

  Air Quality AQ Index Pollutant
Not available.

Snow Depth

Station Depth Elevation

Earthquake Activity

City Distance Mag. Time & Date
Minimum magnitude displayed is 2.5.

Coastal Water Temperatures

Place Temperature

Nearby Weather Stations